Cundiyo, New Mexico
Current Conditions -  °F | °C
As of 4:55 PM on Wednesday 22 Oct 2014 (Local Time) from KSKX Reporting Station
Clear Clear  
Wind Chill: 66°   Ceiling: Unl
Heat Index: 66°   Visibility: 10mi
Dew Point: 28°   Wind: 10mph
Humidity: 24%   Direction: 320°NW
Pressure: 30.2"   Gusts: NA
Location:  36.0272°N, 105.768°W
Report Text: KSKX 222255Z AUTO 32009KT 10SM CLR 19/M02 A3020 RMK AO1
Loading
Personal Weather Stations






























Interactive Weather Map
Tropical Storm Tracking
New forecast layout! Learn more

10-Day Weather Forecast

Advertisements
Track Severe Weather on mobile